METAR Data
IDs: Format: Raw Decoded Include TAF

Data at: 2018 UTC 19 May 2019

KEOK 192015Z AUTO 27015G25KT 10SM SCT027 SCT033 BKN039 20/15 A2973 RMK AO2
KEOK 191955Z AUTO 28015G21KT 10SM SCT027 SCT037 BKN046 20/16 A2972 RMK AO2 P0008
KEOK 191935Z AUTO 27013KT 10SM FEW032 BKN047 OVC060 20/16 A2972 RMK AO2
KEOK 191915Z AUTO 28010KT 4SM BR FEW025 BKN032 OVC045 18/17 A2971 RMK AO2
KEOK 191855Z AUTO 27008KT 10SM FEW026 BKN032 OVC075 20/15 A2970 RMK AO2
KEOK 191835Z AUTO 30011G17KT 9SM -RA FEW026 SCT032 BKN050 20/16 A2970 RMK AO2
KEOK 191815Z AUTO 27011KT 10SM BKN026 BKN034 BKN042 20/16 A2969 RMK AO2
KEOK 191755Z AUTO 28013KT 10SM FEW021 BKN026 BKN033 20/15 A2968 RMK AO2
KEOK 191735Z AUTO 25011G19KT 10SM FEW020 SCT037 BKN046 20/16 A2967 RMK AO2
KEOK 191715Z AUTO 25012KT 10SM SCT019 BKN029 OVC046 19/16 A2967 RMK AO2
KEOK 191655Z AUTO 24013G20KT 10SM BKN020 BKN029 OVC037 19/16 A2966 RMK AO2
KEOK 191635Z AUTO 25010G17KT 10SM BKN018 OVC024 19/16 A2966 RMK AO2
KEOK 191615Z AUTO 24013G19KT 10SM SCT018 BKN024 BKN029 19/15 A2965 RMK AO2
KEOK 191555Z AUTO 21011KT 10SM CLR 18/15 A2964 RMK AO2
KEOK 191535Z AUTO 20010KT 10SM CLR 18/16 A2962 RMK AO2
KEOK 191515Z AUTO 21009KT 10SM CLR 16/15 A2962 RMK AO2
KEOK 191455Z AUTO 22010KT 9SM FEW031 FEW047 BKN080 15/14 A2962 RMK AO2 P0020
KEOK 191435Z AUTO 24012G22KT 2 1/2SM -RA FEW004 SCT016 BKN031 14/13 A2963 RMK AO2 VIS 1 1/2V5
KEOK 191415Z AUTO 21016KT 10SM BKN015 OVC022 18/17 A2961 RMK AO2
KEOK 191355Z AUTO 20011G22KT 10SM SCT010 BKN015 OVC022 19/17 A2960 RMK AO2
KEOK 191335Z AUTO 20013G19KT 10SM BKN010 BKN018 BKN025 18/17 A2959 RMK AO2
KEOK 191315Z AUTO 19011G18KT 10SM BKN010 BKN025 BKN035 18/17 A2959 RMK AO2
KEOK 191255Z AUTO 19014KT 10SM BKN009 BKN013 OVC026 18/17 A2959 RMK AO2
KEOK 191235Z AUTO 19008KT 10SM SCT008 BKN013 17/17 A2958 RMK AO2
KEOK 191215Z AUTO 18007G12KT 10SM SCT006 17/17 A2957 RMK AO2
KEOK 191155Z AUTO 20005KT 10SM BKN006 BKN010 OVC031 17/16 A2957 RMK AO2
KEOK 191135Z AUTO 17008KT 10SM FEW009 OVC031 17/16 A2956 RMK AO2
KEOK 191115Z AUTO 19007G12KT 10SM FEW008 FEW012 OVC033 17/16 A2957 RMK AO2
KEOK 191055Z AUTO 19009KT 10SM BKN010 BKN024 OVC034 17/16 A2958 RMK AO2
KEOK 191035Z AUTO 20006KT 10SM SCT009 BKN013 OVC030 17/17 A2958 RMK AO2
KEOK 191015Z AUTO 21007KT 10SM SCT010 BKN018 OVC033 17/16 A2959 RMK AO2
KEOK 190955Z AUTO 21008KT 10SM BKN010 OVC013 17/16 A2959 RMK AO2
KEOK 190935Z AUTO 21009KT 10SM -RA OVC013 17/16 A2958 RMK AO2
KEOK 190915Z AUTO 21008KT 10SM OVC014 17/16 A2958 RMK AO2
KEOK 190855Z AUTO 21005G13KT 10SM BKN010 OVC015 17/16 A2958 RMK AO2
KEOK 190835Z AUTO 21009KT 10SM OVC011 17/17 A2957 RMK AO2
KEOK 190815Z AUTO 21008G13KT 10SM BKN012 OVC110 17/16 A2958 RMK AO2
KEOK 190755Z AUTO 22007KT 10SM BKN110 17/16 A2957 RMK AO2
KEOK 190735Z AUTO 21008KT 170V230 10SM CLR 17/16 A2956 RMK AO2
KEOK 190715Z AUTO 21007KT 10SM CLR 17/17 A2957 RMK AO2
KEOK 190655Z AUTO 21008KT 10SM CLR 17/17 A2957 RMK AO2
KEOK 190635Z AUTO 21009KT 10SM CLR 18/17 A2957 RMK AO2
KEOK 190615Z AUTO 22010G16KT 10SM FEW008 FEW012 18/17 A2958 RMK AO2
KEOK 190555Z AUTO 20013KT 10SM BKN007 18/17 A2959 RMK AO2
KEOK 190535Z AUTO 19011KT 10SM SCT008 18/18 A2959 RMK AO2
KEOK 190515Z AUTO 19010G15KT 10SM FEW008 18/18 A2958 RMK AO2
KEOK 190455Z AUTO 19010G17KT 10SM FEW110 18/18 A2958 RMK AO2
KEOK 190435Z AUTO 19012KT 10SM OVC110 19/18 A2958 RMK AO2
KEOK 190415Z AUTO 20013G19KT 10SM BKN090 BKN110 19/18 A2960 RMK AO2
KEOK 190355Z AUTO 17010KT 10SM FEW095 FEW110 19/18 A2958 RMK AO2
KEOK 190335Z AUTO 16010KT 10SM SCT075 BKN090 BKN110 19/18 A2958 RMK AO2
KEOK 190315Z AUTO 17007G12KT 10SM BKN085 OVC110 19/19 A2959 RMK AO2
KEOK 190255Z AUTO 16008G13KT 10SM BKN095 OVC110 19/18 A2958 RMK AO2
KEOK 190235Z AUTO 14006G11KT 10SM FEW060 BKN110 19/18 A2958 RMK AO2
KEOK 190215Z AUTO 13008KT 10SM -RA SCT036 SCT049 BKN095 19/19 A2959 RMK AO2
KEOK 190155Z AUTO 14007KT 4SM -RA FEW004 BKN037 OVC050 19/19 A2961 RMK AO2 P0004
KEOK 190135Z AUTO 22011G19KT 3SM -RA FEW005 SCT021 BKN039 20/19 A2962 RMK AO2
KEOK 190115Z AUTO 13007KT 9SM FEW040 BKN060 OVC110 22/21 A2959 RMK AO2
KEOK 190055Z AUTO 12007KT 10SM FEW060 SCT070 BKN110 22/21 A2959 RMK AO2
KEOK 190035Z AUTO 11008KT 10SM CLR 22/21 A2959 RMK AO2
KEOK 190015Z AUTO 12008G13KT 10SM CLR 22/21 A2959 RMK AO2
KEOK 182355Z AUTO 12009KT 10SM CLR 22/21 A2960 RMK AO2
KEOK 182335Z AUTO 13008G15KT 10SM SCT100 22/21 A2961 RMK AO2
KEOK 182315Z AUTO 13008KT 10SM BKN090 22/20 A2962 RMK AO2
KEOK 182255Z AUTO 12009KT 10SM BKN090 22/20 A2962 RMK AO2
KEOK 182235Z AUTO 11009KT 10SM BKN095 21/20 A2963 RMK AO2
KEOK 182215Z AUTO 10008KT 10SM FEW070 BKN095 21/20 A2964 RMK AO2
KEOK 182155Z AUTO 08003KT 9SM 20/20 A2965 RMK AO2
KEOK 182135Z AUTO 00000KT 20/20 A2965 RMK AO2 PWINO
KEOK 182115Z AUTO 23010KT 9SM FEW003 SCT034 BKN055 20/19 A2966 RMK AO2
KEOK 182055Z AUTO 21012G26KT 4SM BR FEW010 SCT035 BKN065 20/18 A2968 RMK AO2 P0002
KEOK 182035Z AUTO 19013G23KT 10SM BKN055 OVC065 21/19 A2968 RMK AO2
KEOK 182015Z AUTO 18013G21KT 10SM BKN050 OVC055 21/19 A2967 RMK AO2
KEOK 181955Z AUTO 18013G20KT 10SM 21/19 A2970 RMK AO2
KEOK 181935Z AUTO 17012G17KT 20/19 A2968 RMK AO2 PWINO
KEOK 181915Z AUTO 19009KT 160V220 10SM FEW009 FEW013 FEW120 20/19 A2969 RMK AO2
KEOK 181855Z AUTO 18010G17KT 150V210 10SM SCT010 SCT034 SCT045 20/20 A2969 RMK AO2 P0001
KEOK 181835Z AUTO 21011G18KT 9SM -RA 20/19 A2970 RMK AO2
KEOK 181815Z AUTO 15012KT A2966 RMK AO2 PWINO
KEOK 181755Z AUTO 18009KT 7SM -RA FEW028 SCT044 BKN055 19/19 A2969 RMK AO2 P0008
KEOK 181735Z AUTO 17011G17KT 5SM -RA FEW007 SCT033 BKN050 19/19 A2969 RMK AO2
KEOK 181715Z AUTO 21010G16KT 6SM -RA FEW047 SCT065 BKN075 19/19 A2971 RMK AO2
KEOK 181655Z AUTO 19008G14KT 10SM -RA FEW038 SCT055 BKN070 19/19 A2971 RMK AO2 P0002
KEOK 181635Z AUTO 16007KT 7SM -RA FEW045 BKN075 BKN110 19/19 A2971 RMK AO2
KEOK 181615Z AUTO 18005G11KT 10SM FEW006 SCT042 BKN120 19/19 A2972 RMK AO2
KEOK 181555Z AUTO 18008KT 9SM FEW006 SCT044 BKN120 19/19 A2974 RMK AO2 P0012
KEOK 181535Z AUTO 21006G14KT 3SM -RA FEW012 BKN033 OVC090 19/19 A2973 RMK AO2
KEOK 181515Z AUTO 22011G20KT 4SM -RA FEW012 SCT034 BKN070 19/18 A2975 RMK AO2
KEOK 181455Z AUTO 25011G20KT 6SM HZ FEW030 SCT040 OVC070 20/17 A2974 RMK AO2 P0001
KEOK 181435Z AUTO 24011KT 9SM SCT039 SCT050 OVC065 21/17 A2975 RMK AO2
KEOK 181415Z AUTO 23011G16KT 10SM BKN037 BKN043 OVC065 21/17 A2975 RMK AO2
KEOK 181355Z AUTO 20012KT 10SM SCT050 SCT070 BKN080 21/17 A2972 RMK AO2
KEOK 181335Z AUTO 19011G22KT 10SM BKN045 BKN055 BKN110 22/16 A2970 RMK AO2
KEOK 181315Z AUTO 19012G19KT 10SM SCT043 BKN048 OVC065 22/16 A2970 RMK AO2
KEOK 181255Z AUTO 18012G20KT 140V200 10SM FEW042 SCT048 BKN070 22/15 A2971 RMK AO2
KEOK 181235Z AUTO 17010G17KT 10SM CLR 22/15 A2971 RMK AO2
KEOK 181215Z AUTO 17009KT 10SM CLR 22/15 A2972 RMK AO2
KEOK 181155Z AUTO 18010KT 10SM CLR 21/15 A2973 RMK AO2
KEOK 181135Z AUTO 17009G14KT 10SM CLR 21/15 A2974 RMK AO2
KEOK 181115Z AUTO 17010KT 10SM SCT070 21/15 A2975 RMK AO2
KEOK 181055Z AUTO 19008KT 10SM CLR 21/15 A2975 RMK AO2
KEOK 181035Z AUTO 19007G12KT 10SM CLR 21/15 A2975 RMK AO2
KEOK 181015Z AUTO 19009G14KT 10SM CLR 21/15 A2975 RMK AO2
KEOK 180955Z AUTO 18007G13KT 10SM CLR 21/15 A2975 RMK AO2
KEOK 180935Z AUTO 19011KT 10SM CLR 22/15 A2974 RMK AO2
KEOK 180915Z AUTO 18009KT 10SM CLR 21/16 A2975 RMK AO2
KEOK 180855Z AUTO 18009KT 10SM CLR 22/16 A2975 RMK AO2
KEOK 180835Z AUTO 18010KT 10SM CLR 22/16 A2976 RMK AO2